ETIK

Illesheim Air Base Heliport

Storck Barracks, Germany
METAR ETIK 212356Z AUTO 00000KT 9999 CLR M05/M06 A3011 RMK AO2 SLP220 T10491060 11012 21051 57008 $
Observed Flight Rules
Feb-21 @ 23:56 UTC (5 hours ago) Visual Flight Rules
Wind Visibility Clouds
Calm 10,000+ meters
  • Clear skies
Temperatures Readings
Current -5°C / 23°F
Dewpoint -6°C / 21°F
Humidity 93%
Altimeter 30.11" Hg
Pressure 1022 hPa
Elevation 325
METAR ETIK 212356Z AUTO 00000KT 9999 CLR M05/M06 A3011 RMK AO2 SLP220 T10491060 11012 21051 57008 $
Observed Flight Rules
Feb-21 @ 23:56 UTC
(5 hours ago)
VFR
Wind Visibility
Calm 10,000+ meters
Clouds
  • Clear skies
Temperature Dewpoint
-5°C / 23°F -6°C / 21°F
Humidity Altimeter Pressure
93% 30.11" Hg 1022 hPa